sensor_id;sensor_type;location;lat;lon;timestamp;pressure;altitude;pressure_sealevel;temperature;humidity
77351;BME280;66420;50.246;14.320;2023-05-07T00:01:32;99876.94;;;10.65;77.33
77351;BME280;66420;50.246;14.320;2023-05-07T00:04:16;99874.88;;;10.44;77.42
77351;BME280;66420;50.246;14.320;2023-05-07T00:07:01;99873.44;;;10.46;77.73
77351;BME280;66420;50.246;14.320;2023-05-07T00:09:46;99871.47;;;10.65;77.37
77351;BME280;66420;50.246;14.320;2023-05-07T00:12:30;99880.53;;;10.47;78.20
77351;BME280;66420;50.246;14.320;2023-05-07T00:15:18;99878.94;;;10.60;77.39
77351;BME280;66420;50.246;14.320;2023-05-07T00:18:03;99878.75;;;10.70;76.46
77351;BME280;66420;50.246;14.320;2023-05-07T00:20:48;99879.59;;;10.71;76.53
77351;BME280;66420;50.246;14.320;2023-05-07T00:23:32;99874.09;;;10.71;76.84
77351;BME280;66420;50.246;14.320;2023-05-07T00:26:17;99878.75;;;10.70;76.99
77351;BME280;66420;50.246;14.320;2023-05-07T00:29:02;99885.56;;;10.73;76.96
77351;BME280;66420;50.246;14.320;2023-05-07T00:31:46;99890.09;;;10.63;76.93
77351;BME280;66420;50.246;14.320;2023-05-07T00:34:33;99882.22;;;10.76;77.47
77351;BME280;66420;50.246;14.320;2023-05-07T00:37:17;99882.72;;;10.78;76.65
77351;BME280;66420;50.246;14.320;2023-05-07T00:40:03;99882.22;;;10.76;76.53
77351;BME280;66420;50.246;14.320;2023-05-07T00:42:52;99879.97;;;10.78;76.07
77351;BME280;66420;50.246;14.320;2023-05-07T00:45:42;99884.88;;;10.81;75.02
77351;BME280;66420;50.246;14.320;2023-05-07T00:48:27;99874.56;;;10.59;75.11
77351;BME280;66420;50.246;14.320;2023-05-07T00:51:12;99875.38;;;10.59;74.47
77351;BME280;66420;50.246;14.320;2023-05-07T00:53:57;99882.28;;;10.57;74.63
77351;BME280;66420;50.246;14.320;2023-05-07T00:56:42;99877.63;;;10.57;75.85
77351;BME280;66420;50.246;14.320;2023-05-07T00:59:27;99882.63;;;10.83;75.04
77351;BME280;66420;50.246;14.320;2023-05-07T01:02:12;99882.03;;;10.86;74.45
77351;BME280;66420;50.246;14.320;2023-05-07T01:04:57;99873.50;;;10.74;74.03
77351;BME280;66420;50.246;14.320;2023-05-07T01:07:43;99876.81;;;10.57;74.50
77351;BME280;66420;50.246;14.320;2023-05-07T01:10:28;99872.06;;;10.62;74.71
77351;BME280;66420;50.246;14.320;2023-05-07T01:13:15;99873.91;;;10.67;74.90
77351;BME280;66420;50.246;14.320;2023-05-07T01:15:59;99874.72;;;10.68;74.52
77351;BME280;66420;50.246;14.320;2023-05-07T01:18:44;99874.72;;;10.68;73.60
77351;BME280;66420;50.246;14.320;2023-05-07T01:21:33;99869.56;;;10.80;73.49
77351;BME280;66420;50.246;14.320;2023-05-07T01:24:19;99880.22;;;10.95;73.21
77351;BME280;66420;50.246;14.320;2023-05-07T01:27:04;99876.97;;;10.93;73.36
77351;BME280;66420;50.246;14.320;2023-05-07T01:29:49;99885.81;;;10.90;73.45
77351;BME280;66420;50.246;14.320;2023-05-07T01:32:49;99889.75;;;10.97;73.60
77351;BME280;66420;50.246;14.320;2023-05-07T01:35:41;99887.53;;;10.86;73.16
77351;BME280;66420;50.246;14.320;2023-05-07T01:38:28;99882.22;;;10.76;73.32
77351;BME280;66420;50.246;14.320;2023-05-07T01:41:13;99892.16;;;10.72;73.07
77351;BME280;66420;50.246;14.320;2023-05-07T01:43:59;99888.72;;;10.80;73.27
77351;BME280;66420;50.246;14.320;2023-05-07T01:46:44;99897.84;;;10.75;73.70
77351;BME280;66420;50.246;14.320;2023-05-07T01:49:29;99887.50;;;10.72;73.57
77351;BME280;66420;50.246;14.320;2023-05-07T01:52:14;99893.75;;;10.73;73.85
77351;BME280;66420;50.246;14.320;2023-05-07T01:54:59;99884.53;;;10.68;74.12
77351;BME280;66420;50.246;14.320;2023-05-07T01:57:44;99887.28;;;10.68;73.67
77351;BME280;66420;50.246;14.320;2023-05-07T02:00:28;99890.34;;;10.81;73.60
77351;BME280;66420;50.246;14.320;2023-05-07T02:03:13;99890.94;;;10.78;73.34
77351;BME280;66420;50.246;14.320;2023-05-07T02:05:58;99901.41;;;10.89;73.57
77351;BME280;66420;50.246;14.320;2023-05-07T02:08:43;99890.34;;;10.81;73.92
77351;BME280;66420;50.246;14.320;2023-05-07T02:11:28;99896.75;;;10.90;74.07
77351;BME280;66420;50.246;14.320;2023-05-07T02:14:13;99902.31;;;10.85;72.95
77351;BME280;66420;50.246;14.320;2023-05-07T02:16:58;99891.16;;;10.68;73.86
77351;BME280;66420;50.246;14.320;2023-05-07T02:19:43;99905.88;;;10.85;73.48
77351;BME280;66420;50.246;14.320;2023-05-07T02:22:27;99893.00;;;10.86;73.82
77351;BME280;66420;50.246;14.320;2023-05-07T02:25:12;99902.00;;;10.86;73.88
77351;BME280;66420;50.246;14.320;2023-05-07T02:27:57;99888.91;;;10.70;73.96
77351;BME280;66420;50.246;14.320;2023-05-07T02:30:41;99901.56;;;10.65;74.22
77351;BME280;66420;50.246;14.320;2023-05-07T02:33:26;99892.44;;;10.70;74.06
77351;BME280;66420;50.246;14.320;2023-05-07T02:36:12;99902.38;;;10.66;73.51
77351;BME280;66420;50.246;14.320;2023-05-07T02:38:57;99900.88;;;10.74;73.10
77351;BME280;66420;50.246;14.320;2023-05-07T02:41:41;99897.13;;;10.83;74.00
77351;BME280;66420;50.246;14.320;2023-05-07T02:44:26;99893.38;;;10.79;73.30
77351;BME280;66420;50.246;14.320;2023-05-07T02:47:11;99894.19;;;10.80;73.34
77351;BME280;66420;50.246;14.320;2023-05-07T02:49:57;99903.78;;;10.63;73.58
77351;BME280;66420;50.246;14.320;2023-05-07T02:52:42;99914.44;;;10.65;73.90
77351;BME280;66420;50.246;14.320;2023-05-07T02:55:27;99912.19;;;10.53;74.90
77351;BME280;66420;50.246;14.320;2023-05-07T02:58:11;99898.94;;;10.74;74.17
77351;BME280;66420;50.246;14.320;2023-05-07T03:00:56;99903.03;;;10.44;75.00
77351;BME280;66420;50.246;14.320;2023-05-07T03:03:40;99904.22;;;10.38;75.33
77351;BME280;66420;50.246;14.320;2023-05-07T03:06:25;99896.91;;;10.34;75.20
77351;BME280;66420;50.246;14.320;2023-05-07T03:09:10;99906.72;;;10.53;75.42
77351;BME280;66420;50.246;14.320;2023-05-07T03:11:54;99914.44;;;10.65;74.78
77351;BME280;66420;50.246;14.320;2023-05-07T03:14:39;99922.16;;;10.63;74.98
77351;BME280;66420;50.246;14.320;2023-05-07T03:17:24;99919.78;;;10.56;75.27
77351;BME280;66420;50.246;14.320;2023-05-07T03:20:11;99920.13;;;10.68;74.78
77351;BME280;66420;50.246;14.320;2023-05-07T03:22:55;99910.81;;;10.70;74.27
77351;BME280;66420;50.246;14.320;2023-05-07T03:25:40;99919.53;;;10.72;74.18
77351;BME280;66420;50.246;14.320;2023-05-07T03:28:24;99914.16;;;10.66;74.61
77351;BME280;66420;50.246;14.320;2023-05-07T03:31:09;99912.00;;;10.63;74.81
77351;BME280;66420;50.246;14.320;2023-05-07T03:33:55;99916.97;;;10.61;73.82
77351;BME280;66420;50.246;14.320;2023-05-07T03:36:40;99916.03;;;10.52;73.21
77351;BME280;66420;50.246;14.320;2023-05-07T03:39:24;99918.44;;;10.40;73.93
77351;BME280;66420;50.246;14.320;2023-05-07T03:42:09;99920.47;;;10.48;73.79
77351;BME280;66420;50.246;14.320;2023-05-07T03:44:54;99907.53;;;10.54;74.17
77351;BME280;66420;50.246;14.320;2023-05-07T03:47:39;99913.78;;;10.54;74.05
77351;BME280;66420;50.246;14.320;2023-05-07T03:50:24;99912.31;;;10.62;73.58
77351;BME280;66420;50.246;14.320;2023-05-07T03:53:09;99916.03;;;10.52;73.79
77351;BME280;66420;50.246;14.320;2023-05-07T03:55:54;99918.72;;;10.39;74.27
77351;BME280;66420;50.246;14.320;2023-05-07T03:58:38;99921.88;;;10.46;73.18
77351;BME280;66420;50.246;14.320;2023-05-07T04:01:23;99919.94;;;10.46;73.41
77351;BME280;66420;50.246;14.320;2023-05-07T04:04:08;99913.47;;;10.42;73.07
77351;BME280;66420;50.246;14.320;2023-05-07T04:06:53;99917.63;;;10.40;73.31
77351;BME280;66420;50.246;14.320;2023-05-07T04:09:38;99923.91;;;10.40;73.51
77351;BME280;66420;50.246;14.320;2023-05-07T04:12:23;99920.63;;;10.38;73.87
77351;BME280;66420;50.246;14.320;2023-05-07T04:15:07;99925.13;;;10.48;73.67
77351;BME280;66420;50.246;14.320;2023-05-07T04:17:53;99928.25;;;10.22;73.67
77351;BME280;66420;50.246;14.320;2023-05-07T04:20:37;99923.81;;;10.27;73.52
77351;BME280;66420;50.246;14.320;2023-05-07T04:23:22;99925.66;;;10.31;73.29
77351;BME280;66420;50.246;14.320;2023-05-07T04:26:07;99927.91;;;10.29;74.33
77351;BME280;66420;50.246;14.320;2023-05-07T04:28:51;99939.66;;;10.30;74.23
77351;BME280;66420;50.246;14.320;2023-05-07T04:31:36;99940.91;;;10.37;74.61
77351;BME280;66420;50.246;14.320;2023-05-07T04:34:20;99943.28;;;10.44;73.81
77351;BME280;66420;50.246;14.320;2023-05-07T04:37:05;99944.66;;;10.41;73.92
77351;BME280;66420;50.246;14.320;2023-05-07T04:39:50;99946.91;;;10.39;73.92
77351;BME280;66420;50.246;14.320;2023-05-07T04:42:34;99956.00;;;10.35;73.65
77351;BME280;66420;50.246;14.320;2023-05-07T04:45:20;99957.75;;;10.44;74.21
77351;BME280;66420;50.246;14.320;2023-05-07T04:48:04;99956.13;;;10.43;73.51
77351;BME280;66420;50.246;14.320;2023-05-07T04:50:50;99955.66;;;10.55;72.83
77351;BME280;66420;50.246;14.320;2023-05-07T04:53:35;99953.91;;;10.45;74.17
77351;BME280;66420;50.246;14.320;2023-05-07T04:56:19;99958.28;;;10.28;73.49
77351;BME280;66420;50.246;14.320;2023-05-07T04:59:05;99958.94;;;10.38;73.44
77351;BME280;66420;50.246;14.320;2023-05-07T05:01:50;99973.78;;;10.13;73.30
77351;BME280;66420;50.246;14.320;2023-05-07T05:04:35;99970.22;;;10.13;73.76
77351;BME280;66420;50.246;14.320;2023-05-07T05:07:19;99969.03;;;10.00;73.68
77351;BME280;66420;50.246;14.320;2023-05-07T05:10:05;99968.66;;;10.31;73.56
77351;BME280;66420;50.246;14.320;2023-05-07T05:12:50;99969.13;;;10.14;73.07
77351;BME280;66420;50.246;14.320;2023-05-07T05:15:34;99964.59;;;10.04;73.91
77351;BME280;66420;50.246;14.320;2023-05-07T05:18:19;99964.16;;;10.21;73.15
77351;BME280;66420;50.246;14.320;2023-05-07T05:21:04;99971.06;;;10.32;72.51
77351;BME280;66420;50.246;14.320;2023-05-07T05:23:49;99966.94;;;10.35;71.46
77351;BME280;66420;50.246;14.320;2023-05-07T05:26:34;99974.75;;;10.41;72.99
77351;BME280;66420;50.246;14.320;2023-05-07T05:29:19;99978.31;;;10.42;72.39
77351;BME280;66420;50.246;14.320;2023-05-07T05:32:03;99978.03;;;10.43;71.07
77351;BME280;66420;50.246;14.320;2023-05-07T05:34:48;99978.25;;;10.28;72.28
77351;BME280;66420;50.246;14.320;2023-05-07T05:37:33;99975.91;;;10.40;71.80
77351;BME280;66420;50.246;14.320;2023-05-07T05:40:18;99974.09;;;10.49;71.58
77351;BME280;66420;50.246;14.320;2023-05-07T05:43:03;99977.94;;;10.48;71.99
77351;BME280;66420;50.246;14.320;2023-05-07T05:45:48;99970.56;;;10.49;70.80
77351;BME280;66420;50.246;14.320;2023-05-07T05:48:33;99973.78;;;10.51;71.67
77351;BME280;66420;50.246;14.320;2023-05-07T05:51:18;99972.56;;;10.43;70.15
77351;BME280;66420;50.246;14.320;2023-05-07T05:54:02;99974.34;;;10.34;70.35
77351;BME280;66420;50.246;14.320;2023-05-07T05:56:47;99984.59;;;10.23;69.84
77351;BME280;66420;50.246;14.320;2023-05-07T05:59:32;99985.56;;;10.33;70.59
77351;BME280;66420;50.246;14.320;2023-05-07T06:02:17;99990.59;;;10.44;70.13
77351;BME280;66420;50.246;14.320;2023-05-07T06:05:03;99995.75;;;10.46;68.75
77351;BME280;66420;50.246;14.320;2023-05-07T06:07:48;99987.53;;;10.64;69.20
77351;BME280;66420;50.246;14.320;2023-05-07T06:10:32;99983.69;;;10.65;69.70
77351;BME280;66420;50.246;14.320;2023-05-07T06:13:17;100004.22;;;10.49;70.41
77351;BME280;66420;50.246;14.320;2023-05-07T06:16:01;100009.16;;;10.47;71.65
77351;BME280;66420;50.246;14.320;2023-05-07T06:18:46;100016.59;;;10.60;71.80
77351;BME280;66420;50.246;14.320;2023-05-07T06:21:30;100022.63;;;10.44;71.06
77351;BME280;66420;50.246;14.320;2023-05-07T06:24:16;100026.94;;;10.63;71.68
77351;BME280;66420;50.246;14.320;2023-05-07T06:27:00;100025.09;;;10.59;70.92
77351;BME280;66420;50.246;14.320;2023-05-07T06:29:45;100032.28;;;10.74;70.45
77351;BME280;66420;50.246;14.320;2023-05-07T06:32:29;100028.28;;;10.85;71.16
77351;BME280;66420;50.246;14.320;2023-05-07T06:35:14;100036.06;;;10.59;72.31
77351;BME280;66420;50.246;14.320;2023-05-07T06:37:59;100035.56;;;10.38;70.78
77351;BME280;66420;50.246;14.320;2023-05-07T06:40:48;100030.69;;;10.35;71.45
77351;BME280;66420;50.246;14.320;2023-05-07T06:43:33;100035.09;;;10.50;71.20
77351;BME280;66420;50.246;14.320;2023-05-07T06:46:18;100036.31;;;10.62;70.61
77351;BME280;66420;50.246;14.320;2023-05-07T06:49:03;100035.19;;;10.96;70.00
77351;BME280;66420;50.246;14.320;2023-05-07T06:51:48;100038.91;;;10.54;71.28
77351;BME280;66420;50.246;14.320;2023-05-07T06:54:32;100034.84;;;10.84;70.64
77351;BME280;66420;50.246;14.320;2023-05-07T06:57:17;100040.44;;;10.41;71.22
77351;BME280;66420;50.246;14.320;2023-05-07T07:00:01;100053.59;;;10.77;71.92
77351;BME280;66420;50.246;14.320;2023-05-07T07:02:46;100047.59;;;10.56;71.15
77351;BME280;66420;50.246;14.320;2023-05-07T07:05:31;100053.16;;;10.70;71.81
77351;BME280;66420;50.246;14.320;2023-05-07T07:08:16;100055.06;;;10.88;70.49
77351;BME280;66420;50.246;14.320;2023-05-07T07:11:02;100051.31;;;10.46;71.44
77351;BME280;66420;50.246;14.320;2023-05-07T07:13:46;100053.00;;;10.80;71.32
77351;BME280;66420;50.246;14.320;2023-05-07T07:16:31;100050.19;;;11.17;70.75
77351;BME280;66420;50.246;14.320;2023-05-07T07:19:15;100054.84;;;10.84;70.53
77351;BME280;66420;50.246;14.320;2023-05-07T07:22:00;100044.44;;;11.00;71.71
77351;BME280;66420;50.246;14.320;2023-05-07T07:24:45;100052.31;;;11.20;69.85
77351;BME280;66420;50.246;14.320;2023-05-07T07:27:29;100056.03;;;11.43;69.69
77351;BME280;66420;50.246;14.320;2023-05-07T07:30:14;100055.38;;;11.32;69.60
77351;BME280;66420;50.246;14.320;2023-05-07T07:32:59;100053.81;;;11.45;68.76
77351;BME280;66420;50.246;14.320;2023-05-07T07:35:47;100065.16;;;11.38;69.76
77351;BME280;66420;50.246;14.320;2023-05-07T07:38:32;100057.84;;;11.47;69.49
77351;BME280;66420;50.246;14.320;2023-05-07T07:41:17;100053.25;;;11.29;68.53
77351;BME280;66420;50.246;14.320;2023-05-07T07:44:03;100065.38;;;11.09;70.48
77351;BME280;66420;50.246;14.320;2023-05-07T07:46:51;100070.78;;;11.28;69.72
77351;BME280;66420;50.246;14.320;2023-05-07T07:49:35;100060.69;;;11.56;69.51
77351;BME280;66420;50.246;14.320;2023-05-07T07:52:20;100063.97;;;11.58;68.96
77351;BME280;66420;50.246;14.320;2023-05-07T07:55:05;100071.25;;;11.35;68.71
77351;BME280;66420;50.246;14.320;2023-05-07T07:57:50;100072.44;;;11.29;68.10
77351;BME280;66420;50.246;14.320;2023-05-07T08:00:36;100069.31;;;11.82;68.62
77351;BME280;66420;50.246;14.320;2023-05-07T08:03:21;100068.06;;;11.88;67.73
77351;BME280;66420;50.246;14.320;2023-05-07T08:06:06;100073.97;;;11.95;68.29
77351;BME280;66420;50.246;14.320;2023-05-07T08:08:51;100082.31;;;11.90;67.47
77351;BME280;66420;50.246;14.320;2023-05-07T08:11:36;100075.00;;;11.99;67.89
77351;BME280;66420;50.246;14.320;2023-05-07T08:14:22;100080.31;;;11.63;66.80
77351;BME280;66420;50.246;14.320;2023-05-07T08:17:07;100074.16;;;11.85;67.88
77351;BME280;66420;50.246;14.320;2023-05-07T08:19:51;100080.63;;;11.62;65.40
77351;BME280;66420;50.246;14.320;2023-05-07T08:22:36;100076.53;;;12.05;66.23
77351;BME280;66420;50.246;14.320;2023-05-07T08:25:21;100080.84;;;12.20;66.19
77351;BME280;66420;50.246;14.320;2023-05-07T08:28:06;100083.94;;;12.05;66.40
77351;BME280;66420;50.246;14.320;2023-05-07T08:30:51;100082.91;;;12.14;66.58
77351;BME280;66420;50.246;14.320;2023-05-07T08:33:36;100079.34;;;11.73;66.82
77351;BME280;66420;50.246;14.320;2023-05-07T08:36:21;100087.97;;;11.93;68.02
77351;BME280;66420;50.246;14.320;2023-05-07T08:39:05;100093.66;;;12.24;66.14
77351;BME280;66420;50.246;14.320;2023-05-07T08:41:54;100102.50;;;12.35;65.88
77351;BME280;66420;50.246;14.320;2023-05-07T08:44:41;100095.06;;;12.49;65.07
77351;BME280;66420;50.246;14.320;2023-05-07T08:47:33;100103.78;;;12.51;63.82
77351;BME280;66420;50.246;14.320;2023-05-07T08:50:20;100099.41;;;12.64;64.95
77351;BME280;66420;50.246;14.320;2023-05-07T08:53:05;100108.06;;;12.43;65.21
77351;BME280;66420;50.246;14.320;2023-05-07T08:55:50;100113.56;;;12.43;64.98
77351;BME280;66420;50.246;14.320;2023-05-07T08:58:35;100109.44;;;12.32;65.26
77351;BME280;66420;50.246;14.320;2023-05-07T09:01:20;100112.97;;;12.19;66.07
77351;BME280;66420;50.246;14.320;2023-05-07T09:04:05;100110.22;;;12.19;65.07
77351;BME280;66420;50.246;14.320;2023-05-07T09:06:51;100111.44;;;12.40;65.69
77351;BME280;66420;50.246;14.320;2023-05-07T09:09:37;100115.97;;;12.59;64.21
77351;BME280;66420;50.246;14.320;2023-05-07T09:12:22;100108.59;;;12.81;64.61
77351;BME280;66420;50.246;14.320;2023-05-07T09:15:07;100110.84;;;12.79;63.55
77351;BME280;66420;50.246;14.320;2023-05-07T09:17:53;100105.16;;;12.76;64.11
77351;BME280;66420;50.246;14.320;2023-05-07T09:20:37;100102.53;;;12.71;64.58
77351;BME280;66420;50.246;14.320;2023-05-07T09:23:22;100112.66;;;12.34;64.87
77351;BME280;66420;50.246;14.320;2023-05-07T09:26:06;100111.53;;;12.49;65.74
77351;BME280;66420;50.246;14.320;2023-05-07T09:28:56;100111.09;;;12.56;64.87
77351;BME280;66420;50.246;14.320;2023-05-07T09:31:40;100101.03;;;12.65;65.19
77351;BME280;66420;50.246;14.320;2023-05-07T09:34:25;100108.41;;;12.78;65.15
77351;BME280;66420;50.246;14.320;2023-05-07T09:37:12;100104.94;;;12.86;64.48
77351;BME280;66420;50.246;14.320;2023-05-07T09:39:56;100103.94;;;12.82;65.15
77351;BME280;66420;50.246;14.320;2023-05-07T09:42:41;100099.03;;;12.79;65.13
77351;BME280;66420;50.246;14.320;2023-05-07T09:45:27;100100.84;;;12.83;63.63
77351;BME280;66420;50.246;14.320;2023-05-07T09:48:12;100118.06;;;13.11;63.93
77351;BME280;66420;50.246;14.320;2023-05-07T09:51:02;100119.09;;;13.38;63.38
77351;BME280;66420;50.246;14.320;2023-05-07T09:53:48;100113.94;;;13.45;64.86
77351;BME280;66420;50.246;14.320;2023-05-07T09:56:33;100099.28;;;13.27;62.58
77351;BME280;66420;50.246;14.320;2023-05-07T09:59:18;100110.94;;;13.55;63.82
77351;BME280;66420;50.246;14.320;2023-05-07T10:02:04;100102.13;;;13.75;63.70
77351;BME280;66420;50.246;14.320;2023-05-07T10:04:50;100103.47;;;13.77;63.06
77351;BME280;66420;50.246;14.320;2023-05-07T10:07:35;100113.66;;;13.77;62.59
77351;BME280;66420;50.246;14.320;2023-05-07T10:10:20;100105.59;;;13.89;63.99
77351;BME280;66420;50.246;14.320;2023-05-07T10:13:06;100109.06;;;13.64;61.39
77351;BME280;66420;50.246;14.320;2023-05-07T10:15:55;100106.88;;;13.52;62.28
77351;BME280;66420;50.246;14.320;2023-05-07T10:18:40;100116.53;;;13.72;62.64
77351;BME280;66420;50.246;14.320;2023-05-07T10:21:27;100120.09;;;13.72;61.67
77351;BME280;66420;50.246;14.320;2023-05-07T10:24:21;100111.22;;;13.75;60.72
77351;BME280;66420;50.246;14.320;2023-05-07T10:27:11;100116.22;;;14.13;60.88
77351;BME280;66420;50.246;14.320;2023-05-07T10:32:53;100105.00;;;14.49;58.67
77351;BME280;66420;50.246;14.320;2023-05-07T10:35:44;100109.47;;;14.28;60.39
77351;BME280;66420;50.246;14.320;2023-05-07T10:38:29;100103.81;;;13.85;60.36
77351;BME280;66420;50.246;14.320;2023-05-07T10:41:14;100103.50;;;13.86;60.08
77351;BME280;66420;50.246;14.320;2023-05-07T10:44:00;100102.59;;;14.08;60.48
77351;BME280;66420;50.246;14.320;2023-05-07T10:47:06;100089.69;;;14.26;61.41
77351;BME280;66420;50.246;14.320;2023-05-07T10:59:30;100099.38;;;14.06;61.72
77351;BME280;66420;50.246;14.320;2023-05-07T11:02:15;100095.59;;;13.93;60.61
77351;BME280;66420;50.246;14.320;2023-05-07T11:05:23;100094.50;;;14.03;60.80
77351;BME280;66420;50.246;14.320;2023-05-07T11:08:09;100099.84;;;14.08;61.47
77351;BME280;66420;50.246;14.320;2023-05-07T11:10:56;100099.72;;;14.21;60.47
77351;BME280;66420;50.246;14.320;2023-05-07T11:13:45;100096.00;;;14.17;62.12
77351;BME280;66420;50.246;14.320;2023-05-07T11:16:32;100094.00;;;14.57;61.25
77351;BME280;66420;50.246;14.320;2023-05-07T11:19:17;100093.06;;;14.79;59.54
77351;BME280;66420;50.246;14.320;2023-05-07T11:25:19;100100.38;;;14.92;60.01
77351;BME280;66420;50.246;14.320;2023-05-07T11:28:06;100106.69;;;14.93;59.42
77351;BME280;66420;50.246;14.320;2023-05-07T11:30:52;100100.22;;;14.89;59.11
77351;BME280;66420;50.246;14.320;2023-05-07T11:33:37;100098.25;;;14.72;59.90
77351;BME280;66420;50.246;14.320;2023-05-07T11:36:23;100097.94;;;14.65;58.22
77351;BME280;66420;50.246;14.320;2023-05-07T11:39:32;100110.09;;;14.16;60.17
77351;BME280;66420;50.246;14.320;2023-05-07T11:42:38;100101.28;;;14.45;60.79
77351;BME280;66420;50.246;14.320;2023-05-07T11:45:24;100104.53;;;14.47;61.39
77351;BME280;66420;50.246;14.320;2023-05-07T11:48:15;100111.16;;;14.37;59.84
77351;BME280;66420;50.246;14.320;2023-05-07T11:51:02;100106.19;;;14.48;60.68
77351;BME280;66420;50.246;14.320;2023-05-07T11:53:50;100106.34;;;14.60;60.47
77351;BME280;66420;50.246;14.320;2023-05-07T11:56:57;100107.00;;;14.83;60.20
77351;BME280;66420;50.246;14.320;2023-05-07T12:00:03;100104.72;;;14.76;59.39
77351;BME280;66420;50.246;14.320;2023-05-07T12:03:08;100113.50;;;14.70;59.04
77351;BME280;66420;50.246;14.320;2023-05-07T12:06:22;100113.97;;;14.63;58.87
77351;BME280;66420;50.246;14.320;2023-05-07T12:09:27;100099.53;;;14.57;58.28
77351;BME280;66420;50.246;14.320;2023-05-07T12:12:38;100104.75;;;14.85;60.44
77351;BME280;66420;50.246;14.320;2023-05-07T12:15:27;100112.06;;;14.89;59.43
77351;BME280;66420;50.246;14.320;2023-05-07T12:18:38;100114.16;;;15.01;60.50
77351;BME280;66420;50.246;14.320;2023-05-07T12:21:47;100120.31;;;15.06;59.69
77351;BME280;66420;50.246;14.320;2023-05-07T12:24:56;100121.91;;;15.50;57.95
77351;BME280;66420;50.246;14.320;2023-05-07T12:28:02;100128.22;;;15.42;58.59
77351;BME280;66420;50.246;14.320;2023-05-07T12:30:54;100114.00;;;15.15;58.35
77351;BME280;66420;50.246;14.320;2023-05-07T12:34:04;100127.94;;;15.09;58.17
77351;BME280;66420;50.246;14.320;2023-05-07T12:37:09;100127.28;;;15.13;58.39
77351;BME280;66420;50.246;14.320;2023-05-07T12:44:25;100117.22;;;14.99;58.83
77351;BME280;66420;50.246;14.320;2023-05-07T12:47:33;100110.41;;;15.05;57.63
77351;BME280;66420;50.246;14.320;2023-05-07T12:50:39;100121.44;;;15.23;58.79
77351;BME280;66420;50.246;14.320;2023-05-07T12:53:45;100112.19;;;15.19;58.74
77351;BME280;66420;50.246;14.320;2023-05-07T12:57:03;100107.81;;;15.00;57.62
77351;BME280;66420;50.246;14.320;2023-05-07T13:00:09;100104.59;;;15.16;56.84
77351;BME280;66420;50.246;14.320;2023-05-07T13:02:58;100110.56;;;15.52;57.81
77351;BME280;66420;50.246;14.320;2023-05-07T13:06:15;100111.88;;;15.12;56.61
77351;BME280;66420;50.246;14.320;2023-05-07T13:09:23;100111.88;;;14.94;56.99
77351;BME280;66420;50.246;14.320;2023-05-07T13:12:31;100114.59;;;15.72;56.63
77351;BME280;66420;50.246;14.320;2023-05-07T13:15:41;100120.63;;;15.57;55.06
77351;BME280;66420;50.246;14.320;2023-05-07T13:18:30;100115.75;;;15.28;56.06
77351;BME280;66420;50.246;14.320;2023-05-07T13:21:15;100108.09;;;15.59;55.98
77351;BME280;66420;50.246;14.320;2023-05-07T13:24:20;100095.75;;;15.65;54.97
77351;BME280;66420;50.246;14.320;2023-05-07T13:27:27;100100.75;;;15.80;55.56
77351;BME280;66420;50.246;14.320;2023-05-07T13:30:15;100092.47;;;15.80;54.76
77351;BME280;66420;50.246;14.320;2023-05-07T13:33:03;100100.66;;;15.34;54.45
77351;BME280;66420;50.246;14.320;2023-05-07T13:35:49;100096.09;;;15.55;55.25
77351;BME280;66420;50.246;14.320;2023-05-07T13:38:36;100095.16;;;15.51;53.84
77351;BME280;66420;50.246;14.320;2023-05-07T13:41:41;100100.00;;;15.54;54.92
77351;BME280;66420;50.246;14.320;2023-05-07T13:44:47;100103.91;;;15.53;54.87
77351;BME280;66420;50.246;14.320;2023-05-07T13:47:55;100103.25;;;15.39;53.33
77351;BME280;66420;50.246;14.320;2023-05-07T13:51:02;100096.00;;;15.26;54.72
77351;BME280;66420;50.246;14.320;2023-05-07T13:54:10;100098.91;;;15.21;54.47
77351;BME280;66420;50.246;14.320;2023-05-07T13:57:15;100099.22;;;15.28;54.38
77351;BME280;66420;50.246;14.320;2023-05-07T14:00:24;100099.22;;;15.19;55.64
77351;BME280;66420;50.246;14.320;2023-05-07T14:03:35;100100.84;;;15.20;54.82
77351;BME280;66420;50.246;14.320;2023-05-07T14:06:39;100092.75;;;15.06;54.64
77351;BME280;66420;50.246;14.320;2023-05-07T14:09:44;100093.22;;;15.08;54.95
77351;BME280;66420;50.246;14.320;2023-05-07T14:12:31;100100.38;;;15.09;54.71
77351;BME280;66420;50.246;14.320;2023-05-07T14:15:39;100103.13;;;15.09;54.99
77351;BME280;66420;50.246;14.320;2023-05-07T14:18:44;100111.53;;;15.22;55.50
77351;BME280;66420;50.246;14.320;2023-05-07T14:21:29;100102.44;;;15.38;54.88
77351;BME280;66420;50.246;14.320;2023-05-07T14:24:15;100100.13;;;15.49;54.42
77351;BME280;66420;50.246;14.320;2023-05-07T14:27:02;100102.91;;;15.49;53.10
77351;BME280;66420;50.246;14.320;2023-05-07T14:30:11;100091.63;;;15.16;52.76
77351;BME280;66420;50.246;14.320;2023-05-07T14:33:16;100098.13;;;15.03;53.70
77351;BME280;66420;50.246;14.320;2023-05-07T14:36:21;100099.56;;;15.09;54.75
77351;BME280;66420;50.246;14.320;2023-05-07T14:39:09;100099.25;;;14.85;55.47
77351;BME280;66420;50.246;14.320;2023-05-07T14:41:59;100100.03;;;14.85;55.79
77351;BME280;66420;50.246;14.320;2023-05-07T14:45:04;100110.44;;;14.80;54.88
77351;BME280;66420;50.246;14.320;2023-05-07T14:48:09;100108.63;;;14.75;55.67
77351;BME280;66420;50.246;14.320;2023-05-07T14:51:16;100111.41;;;14.75;55.66
77351;BME280;66420;50.246;14.320;2023-05-07T14:54:21;100104.88;;;14.71;56.28
77351;BME280;66420;50.246;14.320;2023-05-07T14:57:28;100097.09;;;14.56;56.16